This is the latest recevied weather packets stored in our database for station/object MEGLR. If no packets are shown the sender has not sent any weather packets the latest 10 day(s).
| Time | Temp. | Humidity | Pressure | Rain* | Wind** | Luminosity | Snow |
|---|---|---|---|---|---|---|---|
| 1777843203 | 28.89° C | 14% | 0 hPa | - | - | - | - |
| 1777842603 | 28.89° C | 16% | 0 hPa | - | - | - | - |
| 1777842003 | 28.33° C | 18% | 0 hPa | - | - | - | - |
| 1777841403 | 26.67° C | 24% | 0 hPa | - | - | - | - |
| 1777840803 | 26.67° C | 25% | 0 hPa | - | - | - | - |
| 1777840203 | 27.22° C | 25% | 0 hPa | - | - | - | - |
| 1777839604 | 26.67° C | 27% | 0 hPa | - | - | - | - |
| 1777839002 | 26.67° C | 25% | 0 hPa | - | - | - | - |
| 1777838403 | 26.11° C | 27% | 0 hPa | - | - | - | - |
| 1777837803 | 26.11° C | 28% | 0 hPa | - | - | - | - |
| 1777837203 | 25° C | 28% | 0 hPa | - | - | - | - |
| 1777836604 | 25° C | 29% | 0 hPa | - | - | - | - |
| 1777836003 | 25° C | 28% | 0 hPa | - | - | - | - |
| 1777835404 | 25° C | 27% | 0 hPa | - | - | - | - |
| 1777834804 | 24.44° C | 27% | 0 hPa | - | - | - | - |
| 1777834203 | 23.89° C | 29% | 0 hPa | - | - | - | - |
| 1777833603 | 23.89° C | 29% | 0 hPa | - | - | - | - |
| 1777833003 | 23.33° C | 29% | 0 hPa | - | - | - | - |
| 1777832403 | 23.33° C | 29% | 0 hPa | - | - | - | - |
| 1777831803 | 22.78° C | 29% | 0 hPa | - | - | - | - |
| 1777831204 | 22.78° C | 28% | 0 hPa | - | - | - | - |
| 1777830603 | 22.78° C | 29% | 0 hPa | - | - | - | - |
| 1777830003 | 22.22° C | 29% | 0 hPa | - | - | - | - |
| 1777829403 | 22.22° C | 30% | 0 hPa | - | - | - | - |
| 1777828803 | 21.67° C | 31% | 0 hPa | - | - | - | - |
* Rain since midnight (hover to see other rain measurements)
** Current wind speed in m/s (hover to see current wind gust speed)